Time,TemperatureF,DewpointF,PressureIn,WindDirection,WindDirectionDegrees,WindSpeedMPH,WindSpeedGustMPH,Humidity,HourlyPrecipIn,Conditions,Clouds,dailyrainin,SolarRadiationWatts/m^2,SoftwareType,DateUTC
2013-08-15 00:01:00,62.6,58.4,29.90,SE,125,0.0,0.0,86,0.00,,,0.00,0,Wunderground v.1.15,2013-08-15 07:01:00,
2013-08-15 00:06:00,62.4,58.2,29.90,ESE,121,0.0,0.0,86,0.00,,,0.00,0,Wunderground v.1.15,2013-08-15 07:06:00,
2013-08-15 00:12:00,62.4,58.2,29.90,ESE,121,0.0,0.0,86,0.00,,,0.00,0,Wunderground v.1.15,2013-08-15 07:12:00,
2013-08-15 00:17:00,62.1,57.9,29.90,ESE,123,0.0,0.0,86,0.00,,,0.00,0,Wunderground v.1.15,2013-08-15 07:17:00,
2013-08-15 00:22:00,61.9,57.7,29.89,SE,130,0.0,0.0,86,0.00,,,0.00,0,Wunderground v.1.15,2013-08-15 07:22:00,
2013-08-15 00:28:00,61.7,57.8,29.89,SE,135,0.0,1.0,87,0.00,,,0.00,0,Wunderground v.1.15,2013-08-15 07:28:00,
2013-08-15 00:34:00,61.8,57.6,29.89,ESE,123,1.0,2.0,86,0.00,,,0.00,0,Wunderground v.1.15,2013-08-15 07:34:00,
2013-08-15 00:39:00,61.8,57.9,29.89,SE,127,1.0,1.0,87,0.00,,,0.00,0,Wunderground v.1.15,2013-08-15 07:39:00,
2013-08-15 00:45:00,61.6,57.4,29.89,ESE,123,1.0,3.0,86,0.00,,,0.00,0,Wunderground v.1.15,2013-08-15 07:45:00,
2013-08-15 00:50:00,61.4,57.5,29.89,SE,126,1.0,2.0,87,0.00,,,0.00,0,Wunderground v.1.15,2013-08-15 07:50:00,
2013-08-15 00:56:00,61.5,57.6,29.89,SE,127,2.0,3.0,87,0.00,,,0.00,0,Wunderground v.1.15,2013-08-15 07:56:00,
2013-08-15 01:01:00,61.5,57.6,29.89,SE,128,1.0,2.0,87,0.00,,,0.00,0,Wunderground v.1.15,2013-08-15 08:01:00,
2013-08-15 01:07:00,61.7,57.5,29.89,SE,128,0.0,2.0,86,0.00,,,0.00,0,Wunderground v.1.15,2013-08-15 08:07:00,
2013-08-15 01:12:00,61.4,56.8,29.89,SE,132,0.0,1.0,85,0.00,,,0.00,0,Wunderground v.1.15,2013-08-15 08:12:00,
2013-08-15 01:17:00,61.1,56.9,29.89,SE,132,1.0,2.0,86,0.00,,,0.00,0,Wunderground v.1.15,2013-08-15 08:17:00,
2013-08-15 01:22:00,60.8,56.6,29.88,SE,126,2.0,3.0,86,0.00,,,0.00,0,Wunderground v.1.15,2013-08-15 08:22:00,
2013-08-15 01:28:00,60.7,56.8,29.89,ESE,119,2.0,3.0,87,0.00,,,0.00,0,Wunderground v.1.15,2013-08-15 08:28:00,
2013-08-15 01:33:00,60.8,56.9,29.89,SE,125,1.0,2.0,87,0.00,,,0.00,0,Wunderground v.1.15,2013-08-15 08:33:00,
2013-08-15 01:39:00,60.9,56.7,29.88,SE,130,1.0,1.0,86,0.00,,,0.00,0,Wunderground v.1.15,2013-08-15 08:39:00,
2013-08-15 01:44:00,60.9,56.7,29.88,SE,129,0.0,1.0,86,0.00,,,0.00,0,Wunderground v.1.15,2013-08-15 08:44:00,
2013-08-15 01:50:00,60.9,56.7,29.88,SE,129,0.0,1.0,86,0.00,,,0.00,0,Wunderground v.1.15,2013-08-15 08:50:00,
2013-08-15 01:55:00,60.7,56.5,29.88,SE,129,0.0,3.0,86,0.00,,,0.00,0,Wunderground v.1.15,2013-08-15 08:55:00,
2013-08-15 02:01:00,60.6,56.4,29.88,SE,125,0.0,0.0,86,0.00,,,0.00,0,Wunderground v.1.15,2013-08-15 09:01:00,
2013-08-15 02:06:00,60.6,56.4,29.89,SE,125,0.0,1.0,86,0.00,,,0.00,0,Wunderground v.1.15,2013-08-15 09:06:00,
2013-08-15 02:12:00,60.4,56.2,29.88,SE,125,0.0,0.0,86,0.00,,,0.00,0,Wunderground v.1.15,2013-08-15 09:12:00,
2013-08-15 02:17:00,60.4,56.5,29.89,SE,125,0.0,0.0,87,0.00,,,0.00,0,Wunderground v.1.15,2013-08-15 09:17:00,
2013-08-15 02:23:00,60.1,55.9,29.89,ESE,117,1.0,3.0,86,0.00,,,0.00,0,Wunderground v.1.15,2013-08-15 09:23:00,
2013-08-15 02:28:00,60.0,56.1,29.89,SE,131,1.0,3.0,87,0.00,,,0.00,0,Wunderground v.1.15,2013-08-15 09:28:00,
2013-08-15 02:33:00,59.9,56.0,29.89,SE,124,1.0,2.0,87,0.00,,,0.00,0,Wunderground v.1.15,2013-08-15 09:33:00,
2013-08-15 02:39:00,59.9,56.0,29.89,ESE,123,1.0,1.0,87,0.00,,,0.00,0,Wunderground v.1.15,2013-08-15 09:39:00,
2013-08-15 02:44:00,59.9,56.0,29.88,SE,126,0.0,1.0,87,0.00,,,0.00,0,Wunderground v.1.15,2013-08-15 09:44:00,
2013-08-15 02:49:00,59.8,55.9,29.88,SE,126,0.0,1.0,87,0.00,,,0.00,0,Wunderground v.1.15,2013-08-15 09:49:00,
2013-08-15 02:55:00,59.6,55.7,29.88,SE,126,0.0,2.0,87,0.00,,,0.00,0,Wunderground v.1.15,2013-08-15 09:55:00,
2013-08-15 03:00:00,59.3,55.7,29.88,SE,124,0.0,1.0,88,0.00,,,0.00,0,Wunderground v.1.15,2013-08-15 10:00:00,
2013-08-15 03:05:00,59.3,55.7,29.88,ESE,120,1.0,2.0,88,0.00,,,0.00,0,Wunderground v.1.15,2013-08-15 10:05:00,
2013-08-15 03:11:00,59.5,55.9,29.88,ESE,121,1.0,1.0,88,0.00,,,0.00,0,Wunderground v.1.15,2013-08-15 10:11:00,
2013-08-15 03:16:00,59.5,55.9,29.88,SE,126,1.0,2.0,88,0.00,,,0.00,0,Wunderground v.1.15,2013-08-15 10:16:00,
2013-08-15 03:21:00,59.5,55.9,29.89,ESE,123,1.0,1.0,88,0.00,,,0.00,0,Wunderground v.1.15,2013-08-15 10:21:00,
2013-08-15 03:26:00,59.3,55.7,29.89,SE,132,2.0,3.0,88,0.00,,,0.00,0,Wunderground v.1.15,2013-08-15 10:26:00,
2013-08-15 03:32:00,59.4,56.2,29.88,ESE,123,2.0,3.0,89,0.00,,,0.00,0,Wunderground v.1.15,2013-08-15 10:32:00,
2013-08-15 03:38:00,59.7,56.5,29.88,ESE,119,1.0,3.0,89,0.00,,,0.00,0,Wunderground v.1.15,2013-08-15 10:38:00,
2013-08-15 03:43:00,59.6,56.4,29.88,SE,129,1.0,2.0,89,0.00,,,0.00,0,Wunderground v.1.15,2013-08-15 10:43:00,
2013-08-15 03:48:00,59.5,55.9,29.88,ESE,113,1.0,3.0,88,0.00,,,0.00,0,Wunderground v.1.15,2013-08-15 10:48:00,
2013-08-15 03:54:00,59.6,56.4,29.88,ESE,120,1.0,2.0,89,0.00,,,0.00,0,Wunderground v.1.15,2013-08-15 10:54:00,
2013-08-15 03:59:00,59.6,56.0,29.88,ESE,120,1.0,1.0,88,0.00,,,0.00,0,Wunderground v.1.15,2013-08-15 10:59:00,
2013-08-15 04:05:00,59.4,56.2,29.88,SE,125,1.0,3.0,89,0.00,,,0.00,0,Wunderground v.1.15,2013-08-15 11:05:00,
2013-08-15 04:10:00,59.3,56.1,29.88,ESE,119,2.0,2.0,89,0.00,,,0.00,0,Wunderground v.1.15,2013-08-15 11:10:00,
2013-08-15 04:15:00,59.5,56.3,29.88,SE,132,2.0,2.0,89,0.00,,,0.00,0,Wunderground v.1.15,2013-08-15 11:15:00,
2013-08-15 04:21:00,59.4,56.2,29.88,SE,126,1.0,3.0,89,0.00,,,0.00,0,Wunderground v.1.15,2013-08-15 11:21:00,
2013-08-15 04:26:00,59.4,56.2,29.88,ESE,121,2.0,3.0,89,0.00,,,0.00,0,Wunderground v.1.15,2013-08-15 11:26:00,
2013-08-15 04:32:00,59.3,56.1,29.88,SE,130,2.0,4.0,89,0.00,,,0.00,0,Wunderground v.1.15,2013-08-15 11:32:00,
2013-08-15 04:38:00,59.3,56.1,29.88,SE,129,2.0,4.0,89,0.00,,,0.00,0,Wunderground v.1.15,2013-08-15 11:38:00,
2013-08-15 04:43:00,59.3,56.1,29.88,ESE,120,3.0,3.0,89,0.00,,,0.00,0,Wunderground v.1.15,2013-08-15 11:43:00,
2013-08-15 04:48:00,59.2,56.0,29.88,SE,134,3.0,3.0,89,0.00,,,0.00,0,Wunderground v.1.15,2013-08-15 11:48:00,
2013-08-15 04:54:00,59.1,55.9,29.88,SE,136,2.0,3.0,89,0.00,,,0.00,0,Wunderground v.1.15,2013-08-15 11:54:00,
2013-08-15 04:59:00,59.1,55.9,29.88,SE,127,2.0,2.0,89,0.00,,,0.00,0,Wunderground v.1.15,2013-08-15 11:59:00,
2013-08-15 05:05:00,59.0,55.8,29.88,SE,127,1.0,2.0,89,0.00,,,0.00,0,Wunderground v.1.15,2013-08-15 12:05:00,
2013-08-15 05:10:00,59.1,55.9,29.88,ESE,122,1.0,1.0,89,0.00,,,0.00,0,Wunderground v.1.15,2013-08-15 12:10:00,
2013-08-15 05:15:00,59.1,55.9,29.88,SE,127,1.0,2.0,89,0.00,,,0.00,0,Wunderground v.1.15,2013-08-15 12:15:00,
2013-08-15 05:21:00,58.9,55.7,29.88,ESE,123,1.0,2.0,89,0.00,,,0.00,0,Wunderground v.1.15,2013-08-15 12:21:00,
2013-08-15 05:26:00,58.8,55.6,29.88,SE,126,2.0,3.0,89,0.00,,,0.00,0,Wunderground v.1.15,2013-08-15 12:26:00,
2013-08-15 05:31:00,58.8,55.6,29.88,SE,128,2.0,2.0,89,0.00,,,0.00,0,Wunderground v.1.15,2013-08-15 12:31:00,
2013-08-15 05:37:00,58.8,55.6,29.88,SE,124,2.0,3.0,89,0.00,,,0.00,0,Wunderground v.1.15,2013-08-15 12:37:00,
2013-08-15 05:42:00,58.7,55.5,29.89,SE,125,2.0,3.0,89,0.00,,,0.00,0,Wunderground v.1.15,2013-08-15 12:42:00,
2013-08-15 05:48:00,58.7,55.5,29.89,SE,126,1.0,3.0,89,0.00,,,0.00,0,Wunderground v.1.15,2013-08-15 12:48:00,
2013-08-15 05:53:00,58.7,55.5,29.89,SE,132,1.0,2.0,89,0.00,,,0.00,0,Wunderground v.1.15,2013-08-15 12:53:00,
2013-08-15 05:59:00,58.8,55.6,29.89,ESE,123,1.0,2.0,89,0.00,,,0.00,0,Wunderground v.1.15,2013-08-15 12:59:00,
2013-08-15 06:05:00,58.7,55.5,29.89,ESE,122,1.0,2.0,89,0.00,,,0.00,0,Wunderground v.1.15,2013-08-15 13:05:00,
2013-08-15 06:11:00,58.7,55.5,29.89,ESE,119,1.0,2.0,89,0.00,,,0.00,0,Wunderground v.1.15,2013-08-15 13:11:00,
2013-08-15 06:16:00,58.6,55.4,29.90,SE,124,1.0,2.0,89,0.00,,,0.00,5,Wunderground v.1.15,2013-08-15 13:16:00,
2013-08-15 06:22:00,58.4,55.2,29.90,SE,128,1.0,2.0,89,0.00,,,0.00,7,Wunderground v.1.15,2013-08-15 13:22:00,
2013-08-15 06:27:00,58.4,55.5,29.90,ESE,117,2.0,3.0,90,0.00,,,0.00,12,Wunderground v.1.15,2013-08-15 13:27:00,
2013-08-15 06:32:00,58.4,55.5,29.90,SE,126,2.0,2.0,90,0.00,,,0.00,16,Wunderground v.1.15,2013-08-15 13:32:00,
2013-08-15 06:38:00,58.5,55.6,29.90,ESE,123,2.0,2.0,90,0.00,,,0.00,23,Wunderground v.1.15,2013-08-15 13:38:00,
2013-08-15 06:43:00,58.6,55.7,29.90,SE,130,1.0,3.0,90,0.00,,,0.00,32,Wunderground v.1.15,2013-08-15 13:43:00,
2013-08-15 06:48:00,58.7,55.5,29.90,SE,131,1.0,3.0,89,0.00,,,0.00,40,Wunderground v.1.15,2013-08-15 13:48:00,
2013-08-15 06:54:00,58.9,55.7,29.91,SE,127,1.0,3.0,89,0.00,,,0.00,37,Wunderground v.1.15,2013-08-15 13:54:00,
2013-08-15 06:59:00,59.0,55.8,29.91,SE,136,1.0,1.0,89,0.00,,,0.00,69,Wunderground v.1.15,2013-08-15 13:59:00,
2013-08-15 07:05:00,59.4,56.2,29.91,SE,128,1.0,2.0,89,0.00,,,0.00,83,Wunderground v.1.15,2013-08-15 14:05:00,
2013-08-15 07:11:00,59.7,56.5,29.91,ESE,115,1.0,2.0,89,0.00,,,0.00,100,Wunderground v.1.15,2013-08-15 14:11:00,
2013-08-15 07:17:00,60.2,56.9,29.91,ESE,116,1.0,2.0,89,0.00,,,0.00,118,Wunderground v.1.15,2013-08-15 14:17:00,
2013-08-15 07:22:00,60.7,57.1,29.91,ESE,112,1.0,2.0,88,0.00,,,0.00,134,Wunderground v.1.15,2013-08-15 14:22:00,
2013-08-15 07:27:00,61.2,57.6,29.91,ESE,119,1.0,2.0,88,0.00,,,0.00,144,Wunderground v.1.15,2013-08-15 14:27:00,
2013-08-15 07:33:00,61.7,57.8,29.91,SE,130,1.0,2.0,87,0.00,,,0.00,163,Wunderground v.1.15,2013-08-15 14:33:00,
2013-08-15 07:39:00,62.3,58.4,29.91,ESE,123,1.0,1.0,87,0.00,,,0.00,181,Wunderground v.1.15,2013-08-15 14:39:00,
2013-08-15 07:45:00,63.2,58.9,29.91,ESE,123,0.0,1.0,86,0.00,,,0.00,146,Wunderground v.1.15,2013-08-15 14:45:00,
2013-08-15 07:51:00,63.9,59.6,29.92,ESE,123,0.0,0.0,86,0.00,,,0.00,223,Wunderground v.1.15,2013-08-15 14:51:00,
2013-08-15 07:57:00,64.4,60.1,29.92,ESE,123,0.0,3.0,86,0.00,,,0.00,244,Wunderground v.1.15,2013-08-15 14:57:00,
2013-08-15 08:02:00,64.9,60.6,29.92,ESE,123,0.0,0.0,86,0.00,,,0.00,264,Wunderground v.1.15,2013-08-15 15:02:00,
2013-08-15 08:08:00,65.2,60.6,29.92,SW,216,0.0,0.0,85,0.00,,,0.00,283,Wunderground v.1.15,2013-08-15 15:08:00,
2013-08-15 08:13:00,65.6,61.0,29.92,NW,314,0.0,0.0,85,0.00,,,0.00,301,Wunderground v.1.15,2013-08-15 15:13:00,
2013-08-15 08:19:00,65.9,60.9,29.92,West,261,1.0,1.0,84,0.00,,,0.00,320,Wunderground v.1.15,2013-08-15 15:19:00,
2013-08-15 08:24:00,66.3,61.0,29.92,NW,321,1.0,1.0,83,0.00,,,0.00,334,Wunderground v.1.15,2013-08-15 15:24:00,
2013-08-15 08:30:00,66.8,61.1,29.92,WSW,255,1.0,2.0,82,0.00,,,0.00,355,Wunderground v.1.15,2013-08-15 15:30:00,
2013-08-15 08:35:00,67.3,61.6,29.92,West,266,1.0,3.0,82,0.00,,,0.00,369,Wunderground v.1.15,2013-08-15 15:35:00,
2013-08-15 08:40:00,67.8,61.4,29.92,WNW,293,1.0,2.0,80,0.00,,,0.00,390,Wunderground v.1.15,2013-08-15 15:40:00,
2013-08-15 08:46:00,68.2,61.8,29.92,West,277,1.0,2.0,80,0.00,,,0.00,406,Wunderground v.1.15,2013-08-15 15:46:00,
2013-08-15 08:51:00,69.0,61.9,29.92,WSW,249,1.0,1.0,78,0.00,,,0.00,424,Wunderground v.1.15,2013-08-15 15:51:00,
2013-08-15 08:57:00,69.9,62.0,29.92,SSE,167,1.0,2.0,76,0.00,,,0.00,443,Wunderground v.1.15,2013-08-15 15:57:00,
2013-08-15 09:02:00,70.2,62.3,29.92,SSW,201,1.0,4.0,76,0.00,,,0.00,459,Wunderground v.1.15,2013-08-15 16:02:00,
2013-08-15 09:08:00,70.8,62.5,29.92,WSW,243,2.0,4.0,75,0.00,,,0.00,480,Wunderground v.1.15,2013-08-15 16:08:00,
2013-08-15 09:13:00,71.4,62.7,29.92,SSW,205,2.0,2.0,74,0.00,,,0.00,494,Wunderground v.1.15,2013-08-15 16:13:00,
2013-08-15 09:18:00,71.7,62.6,29.92,SSW,204,1.0,3.0,73,0.00,,,0.00,512,Wunderground v.1.15,2013-08-15 16:18:00,
2013-08-15 09:24:00,72.4,62.9,29.92,SE,145,1.0,1.0,72,0.00,,,0.00,531,Wunderground v.1.15,2013-08-15 16:24:00,
2013-08-15 09:29:00,73.2,63.2,29.92,SW,221,1.0,1.0,71,0.00,,,0.00,547,Wunderground v.1.15,2013-08-15 16:29:00,
2013-08-15 09:34:00,73.4,63.0,29.92,South,188,1.0,1.0,70,0.00,,,0.00,561,Wunderground v.1.15,2013-08-15 16:34:00,
2013-08-15 09:39:00,73.6,62.8,29.92,WSW,250,2.0,2.0,69,0.00,,,0.00,575,Wunderground v.1.15,2013-08-15 16:39:00,
2013-08-15 09:45:00,73.8,63.0,29.92,South,178,4.0,6.0,69,0.00,,,0.00,591,Wunderground v.1.15,2013-08-15 16:45:00,
2013-08-15 09:50:00,74.4,63.1,29.92,SE,143,3.0,5.0,68,0.00,,,0.00,603,Wunderground v.1.15,2013-08-15 16:50:00,
2013-08-15 09:56:00,74.7,63.4,29.92,SW,219,2.0,5.0,68,0.00,,,0.00,619,Wunderground v.1.15,2013-08-15 16:56:00,
2013-08-15 10:01:00,74.8,63.1,29.92,SSE,166,2.0,3.0,67,0.00,,,0.00,629,Wunderground v.1.15,2013-08-15 17:01:00,
2013-08-15 10:07:00,75.6,63.4,29.92,SW,229,3.0,5.0,66,0.00,,,0.00,647,Wunderground v.1.15,2013-08-15 17:07:00,
2013-08-15 10:12:00,75.8,63.6,29.92,WSW,250,3.0,4.0,66,0.00,,,0.00,659,Wunderground v.1.15,2013-08-15 17:12:00,
2013-08-15 10:17:00,76.2,63.6,29.92,SSW,208,3.0,6.0,65,0.00,,,0.00,671,Wunderground v.1.15,2013-08-15 17:17:00,
2013-08-15 10:23:00,76.5,63.9,29.92,SW,229,3.0,5.0,65,0.00,,,0.00,682,Wunderground v.1.15,2013-08-15 17:23:00,
2013-08-15 10:29:00,77.2,64.1,29.92,SW,217,3.0,5.0,64,0.00,,,0.00,694,Wunderground v.1.15,2013-08-15 17:29:00,
2013-08-15 10:38:00,78.0,63.9,29.92,South,175,3.0,5.0,62,0.00,,,0.00,714,Wunderground v.1.15,2013-08-15 17:38:00,
2013-08-15 10:44:00,78.1,64.0,29.92,South,178,3.0,3.0,62,0.00,,,0.00,726,Wunderground v.1.15,2013-08-15 17:44:00,
2013-08-15 10:49:00,78.3,63.7,29.92,NW,304,2.0,6.0,61,0.00,,,0.00,737,Wunderground v.1.15,2013-08-15 17:49:00,
2013-08-15 10:54:00,78.5,63.9,29.92,SSW,210,3.0,6.0,61,0.00,,,0.00,744,Wunderground v.1.15,2013-08-15 17:54:00,
2013-08-15 10:59:00,78.6,64.0,29.92,SSW,202,3.0,5.0,61,0.00,,,0.00,752,Wunderground v.1.15,2013-08-15 17:59:00,
2013-08-15 11:05:00,79.9,64.3,29.92,South,190,3.0,5.0,59,0.00,,,0.00,766,Wunderground v.1.15,2013-08-15 18:05:00,
2013-08-15 11:10:00,80.2,64.1,29.92,WSW,239,3.0,6.0,58,0.00,,,0.00,775,Wunderground v.1.15,2013-08-15 18:10:00,
2013-08-15 11:16:00,80.3,64.2,29.92,SSW,192,3.0,6.0,58,0.00,,,0.00,784,Wunderground v.1.15,2013-08-15 18:16:00,
2013-08-15 11:23:00,81.1,64.4,29.91,SW,219,2.0,6.0,57,0.00,,,0.00,796,Wunderground v.1.15,2013-08-15 18:23:00,
2013-08-15 11:28:00,81.2,64.0,29.91,NNW,337,2.0,6.0,56,0.00,,,0.00,803,Wunderground v.1.15,2013-08-15 18:28:00,
2013-08-15 11:34:00,81.4,64.2,29.91,West,279,2.0,3.0,56,0.00,,,0.00,816,Wunderground v.1.15,2013-08-15 18:34:00,
2013-08-15 11:40:00,81.5,64.3,29.91,ESE,103,2.0,2.0,56,0.00,,,0.00,821,Wunderground v.1.15,2013-08-15 18:40:00,
2013-08-15 11:46:00,82.6,64.8,29.90,SSE,155,3.0,6.0,55,0.00,,,0.00,830,Wunderground v.1.15,2013-08-15 18:46:00,
2013-08-15 11:51:00,83.3,64.9,29.90,WSW,241,3.0,4.0,54,0.00,,,0.00,835,Wunderground v.1.15,2013-08-15 18:51:00,
2013-08-15 11:57:00,83.5,64.0,29.90,SW,215,4.0,7.0,52,0.00,,,0.00,842,Wunderground v.1.15,2013-08-15 18:57:00,
2013-08-15 12:02:00,82.7,63.3,29.90,WNW,286,3.0,3.0,52,0.00,,,0.00,846,Wunderground v.1.15,2013-08-15 19:02:00,
2013-08-15 12:08:00,84.7,64.6,29.90,South,182,3.0,5.0,51,0.00,,,0.00,858,Wunderground v.1.15,2013-08-15 19:08:00,
2013-08-15 12:13:00,85.0,63.7,29.90,SSW,213,4.0,8.0,49,0.00,,,0.00,853,Wunderground v.1.15,2013-08-15 19:13:00,
2013-08-15 12:19:00,84.8,63.5,29.89,WNW,291,4.0,6.0,49,0.00,,,0.00,861,Wunderground v.1.15,2013-08-15 19:19:00,
2013-08-15 12:25:00,85.6,63.7,29.89,SSW,193,4.0,6.0,48,0.00,,,0.00,861,Wunderground v.1.15,2013-08-15 19:25:00,
2013-08-15 12:31:00,85.0,63.1,29.89,WNW,302,4.0,6.0,48,0.00,,,0.00,868,Wunderground v.1.15,2013-08-15 19:31:00,
2013-08-15 12:37:00,85.7,63.1,29.89,WSW,246,4.0,6.0,47,0.00,,,0.00,865,Wunderground v.1.15,2013-08-15 19:37:00,
2013-08-15 12:42:00,86.1,63.5,29.89,WSW,244,4.0,6.0,47,0.00,,,0.00,868,Wunderground v.1.15,2013-08-15 19:42:00,
2013-08-15 12:48:00,86.5,63.3,29.89,SSW,195,4.0,6.0,46,0.00,,,0.00,865,Wunderground v.1.15,2013-08-15 19:48:00,
2013-08-15 12:54:00,86.5,63.3,29.89,SW,234,5.0,8.0,46,0.00,,,0.00,868,Wunderground v.1.15,2013-08-15 19:54:00,
2013-08-15 12:59:00,86.9,63.0,29.89,SSE,167,5.0,5.0,45,0.00,,,0.00,867,Wunderground v.1.15,2013-08-15 19:59:00,
2013-08-15 13:05:00,87.5,62.9,29.89,West,272,4.0,7.0,44,0.00,,,0.00,868,Wunderground v.1.15,2013-08-15 20:05:00,
2013-08-15 13:10:00,86.7,63.4,29.89,SW,226,4.0,5.0,46,0.00,,,0.00,865,Wunderground v.1.15,2013-08-15 20:10:00,
2013-08-15 13:16:00,87.5,63.5,29.89,South,182,4.0,7.0,45,0.00,,,0.00,861,Wunderground v.1.15,2013-08-15 20:16:00,
2013-08-15 13:22:00,87.5,62.9,29.89,WSW,257,5.0,6.0,44,0.00,,,0.00,860,Wunderground v.1.15,2013-08-15 20:22:00,
2013-08-15 13:27:00,87.5,63.5,29.89,SW,219,4.0,8.0,45,0.00,,,0.00,858,Wunderground v.1.15,2013-08-15 20:27:00,
2013-08-15 13:33:00,88.1,63.4,29.88,ESE,119,4.0,7.0,44,0.00,,,0.00,854,Wunderground v.1.15,2013-08-15 20:33:00,
2013-08-15 13:38:00,88.0,63.4,29.88,SW,219,4.0,7.0,44,0.00,,,0.00,856,Wunderground v.1.15,2013-08-15 20:38:00,
2013-08-15 13:44:00,87.7,63.7,29.88,SSW,192,4.0,6.0,45,0.00,,,0.00,849,Wunderground v.1.15,2013-08-15 20:44:00,
2013-08-15 13:49:00,87.7,63.1,29.88,WSW,246,5.0,5.0,44,0.00,,,0.00,846,Wunderground v.1.15,2013-08-15 20:49:00,
2013-08-15 13:55:00,87.9,63.3,29.88,SW,231,5.0,11.0,44,0.00,,,0.00,835,Wunderground v.1.15,2013-08-15 20:55:00,
2013-08-15 14:01:00,88.1,63.4,29.88,SW,226,4.0,7.0,44,0.00,,,0.00,831,Wunderground v.1.15,2013-08-15 21:01:00,
2013-08-15 14:07:00,88.1,63.4,29.88,West,277,5.0,7.0,44,0.00,,,0.00,819,Wunderground v.1.15,2013-08-15 21:07:00,
2013-08-15 14:14:00,87.9,63.3,29.88,West,275,4.0,6.0,44,0.00,,,0.00,814,Wunderground v.1.15,2013-08-15 21:14:00,
2013-08-15 14:21:00,87.3,62.7,29.88,WSW,244,5.0,5.0,44,0.00,,,0.00,802,Wunderground v.1.15,2013-08-15 21:21:00,
2013-08-15 14:27:00,88.2,63.5,29.88,SW,236,4.0,9.0,44,0.00,,,0.00,795,Wunderground v.1.15,2013-08-15 21:27:00,
2013-08-15 14:34:00,87.4,63.5,29.88,WSW,246,5.0,5.0,45,0.00,,,0.00,786,Wunderground v.1.15,2013-08-15 21:34:00,
2013-08-15 14:41:00,87.4,62.8,29.88,SSW,192,5.0,13.0,44,0.00,,,0.00,772,Wunderground v.1.15,2013-08-15 21:41:00,
2013-08-15 14:46:00,86.6,62.7,29.88,SSE,165,6.0,13.0,45,0.00,,,0.00,761,Wunderground v.1.15,2013-08-15 21:46:00,
2013-08-15 14:52:00,86.0,62.2,29.88,South,179,6.0,8.0,45,0.00,,,0.00,754,Wunderground v.1.15,2013-08-15 21:52:00,
2013-08-15 14:58:00,86.3,62.5,29.88,SW,227,5.0,8.0,45,0.00,,,0.00,742,Wunderground v.1.15,2013-08-15 21:58:00,
2013-08-15 15:05:00,85.9,62.1,29.88,SW,229,5.0,10.0,45,0.00,,,0.00,729,Wunderground v.1.15,2013-08-15 22:05:00,
2013-08-15 15:11:00,85.6,61.2,29.88,SW,217,5.0,7.0,44,0.00,,,0.00,715,Wunderground v.1.15,2013-08-15 22:11:00,
2013-08-15 15:16:00,85.2,61.5,29.88,SSW,202,6.0,8.0,45,0.00,,,0.00,703,Wunderground v.1.15,2013-08-15 22:16:00,
2013-08-15 15:21:00,85.1,61.4,29.88,WSW,254,5.0,8.0,45,0.00,,,0.00,694,Wunderground v.1.15,2013-08-15 22:21:00,
2013-08-15 15:27:00,84.8,61.1,29.88,SE,146,6.0,9.0,45,0.00,,,0.00,679,Wunderground v.1.15,2013-08-15 22:27:00,
2013-08-15 15:32:00,84.8,60.5,29.88,SW,215,5.0,8.0,44,0.00,,,0.00,668,Wunderground v.1.15,2013-08-15 22:32:00,
2013-08-15 15:37:00,84.7,61.0,29.88,SSW,211,4.0,8.0,45,0.00,,,0.00,654,Wunderground v.1.15,2013-08-15 22:37:00,
2013-08-15 15:43:00,85.5,60.4,29.88,WNW,282,4.0,5.0,43,0.00,,,0.00,642,Wunderground v.1.15,2013-08-15 22:43:00,
2013-08-15 15:48:00,85.1,60.7,29.88,SSW,203,4.0,10.0,44,0.00,,,0.00,628,Wunderground v.1.15,2013-08-15 22:48:00,
2013-08-15 15:54:00,85.2,60.2,29.88,West,279,4.0,7.0,43,0.00,,,0.00,615,Wunderground v.1.15,2013-08-15 22:54:00,
2013-08-15 15:59:00,84.8,61.7,29.88,SW,225,4.0,6.0,46,0.00,,,0.00,599,Wunderground v.1.15,2013-08-15 22:59:00,
2013-08-15 16:06:00,84.4,60.7,29.88,WSW,241,5.0,10.0,45,0.00,,,0.00,578,Wunderground v.1.15,2013-08-15 23:06:00,
2013-08-15 16:12:00,84.8,61.1,29.88,SSE,165,5.0,9.0,45,0.00,,,0.00,563,Wunderground v.1.15,2013-08-15 23:12:00,
2013-08-15 16:17:00,84.9,60.6,29.88,South,180,4.0,9.0,44,0.00,,,0.00,550,Wunderground v.1.15,2013-08-15 23:17:00,
2013-08-15 16:23:00,84.7,60.4,29.88,SSW,198,4.0,5.0,44,0.00,,,0.00,534,Wunderground v.1.15,2013-08-15 23:23:00,
2013-08-15 16:28:00,85.0,60.0,29.88,SSW,201,4.0,6.0,43,0.00,,,0.00,519,Wunderground v.1.15,2013-08-15 23:28:00,
2013-08-15 16:34:00,85.0,60.6,29.88,SW,234,4.0,6.0,44,0.00,,,0.00,501,Wunderground v.1.15,2013-08-15 23:34:00,
2013-08-15 16:39:00,84.6,60.3,29.87,SW,221,5.0,7.0,44,0.00,,,0.00,487,Wunderground v.1.15,2013-08-15 23:39:00,
2013-08-15 16:45:00,84.7,60.4,29.87,South,173,5.0,8.0,44,0.00,,,0.00,469,Wunderground v.1.15,2013-08-15 23:45:00,
2013-08-15 16:50:00,84.7,59.7,29.87,SSW,209,5.0,7.0,43,0.00,,,0.00,455,Wunderground v.1.15,2013-08-15 23:50:00,
2013-08-15 16:56:00,85.0,60.0,29.87,SW,236,5.0,7.0,43,0.00,,,0.00,434,Wunderground v.1.15,2013-08-15 23:56:00,
2013-08-15 17:01:00,84.8,59.8,29.87,SW,214,4.0,6.0,43,0.00,,,0.00,417,Wunderground v.1.15,2013-08-16 00:01:00,
2013-08-15 17:07:00,84.5,60.8,29.87,SW,214,5.0,6.0,45,0.00,,,0.00,394,Wunderground v.1.15,2013-08-16 00:07:00,
2013-08-15 17:12:00,84.1,60.5,29.87,WSW,245,6.0,10.0,45,0.00,,,0.00,380,Wunderground v.1.15,2013-08-16 00:12:00,
2013-08-15 17:18:00,83.8,59.6,29.87,SW,218,6.0,10.0,44,0.00,,,0.00,364,Wunderground v.1.15,2013-08-16 00:18:00,
2013-08-15 17:23:00,83.8,60.2,29.87,SW,217,5.0,8.0,45,0.00,,,0.00,346,Wunderground v.1.15,2013-08-16 00:23:00,
2013-08-15 17:29:00,84.1,60.5,29.87,SSW,213,5.0,7.0,45,0.00,,,0.00,322,Wunderground v.1.15,2013-08-16 00:29:00,
2013-08-15 17:34:00,83.6,60.6,29.87,WSW,239,4.0,7.0,46,0.00,,,0.00,306,Wunderground v.1.15,2013-08-16 00:34:00,
2013-08-15 17:40:00,82.9,61.2,29.87,SW,217,5.0,7.0,48,0.00,,,0.00,288,Wunderground v.1.15,2013-08-16 00:40:00,
2013-08-15 17:46:00,82.5,61.4,29.87,South,190,4.0,7.0,49,0.00,,,0.00,276,Wunderground v.1.15,2013-08-16 00:46:00,
2013-08-15 17:51:00,81.6,61.2,29.87,SSW,193,5.0,8.0,50,0.00,,,0.00,260,Wunderground v.1.15,2013-08-16 00:51:00,
2013-08-15 17:56:00,81.3,61.4,29.87,SSW,211,5.0,9.0,51,0.00,,,0.00,244,Wunderground v.1.15,2013-08-16 00:56:00,
2013-08-15 18:06:00,80.8,61.5,29.87,SW,226,4.0,8.0,52,0.00,,,0.00,209,Wunderground v.1.15,2013-08-16 01:06:00,
2013-08-15 18:11:00,80.4,62.2,29.87,WSW,250,4.0,6.0,54,0.00,,,0.00,190,Wunderground v.1.15,2013-08-16 01:11:00,
2013-08-15 18:16:00,80.0,61.3,29.87,SW,230,4.0,7.0,53,0.00,,,0.00,171,Wunderground v.1.15,2013-08-16 01:16:00,
2013-08-15 18:22:00,79.6,61.5,29.87,SW,232,4.0,5.0,54,0.00,,,0.00,149,Wunderground v.1.15,2013-08-16 01:22:00,
2013-08-15 18:27:00,79.5,61.9,29.87,SSW,202,4.0,7.0,55,0.00,,,0.00,132,Wunderground v.1.15,2013-08-16 01:27:00,
2013-08-15 18:32:00,78.9,61.9,29.87,SSW,201,4.0,7.0,56,0.00,,,0.00,118,Wunderground v.1.15,2013-08-16 01:32:00,
2013-08-15 18:38:00,78.2,61.7,29.87,SW,215,5.0,9.0,57,0.00,,,0.00,98,Wunderground v.1.15,2013-08-16 01:38:00,
2013-08-15 18:43:00,78.1,61.6,29.88,SSW,209,4.0,8.0,57,0.00,,,0.00,83,Wunderground v.1.15,2013-08-16 01:43:00,
2013-08-15 18:49:00,77.8,61.8,29.88,SW,217,4.0,7.0,58,0.00,,,0.00,67,Wunderground v.1.15,2013-08-16 01:49:00,
2013-08-15 18:54:00,77.4,61.5,29.88,SSW,213,5.0,7.0,58,0.00,,,0.00,54,Wunderground v.1.15,2013-08-16 01:54:00,
2013-08-15 18:59:00,77.3,61.9,29.88,SW,219,4.0,5.0,59,0.00,,,0.00,44,Wunderground v.1.15,2013-08-16 01:59:00,
2013-08-15 19:05:00,76.9,62.0,29.88,WSW,257,4.0,6.0,60,0.00,,,0.00,32,Wunderground v.1.15,2013-08-16 02:05:00,
2013-08-15 19:11:00,76.4,62.0,29.88,SW,216,4.0,8.0,61,0.00,,,0.00,23,Wunderground v.1.15,2013-08-16 02:11:00,
2013-08-15 19:16:00,75.8,61.8,29.89,WSW,238,4.0,9.0,62,0.00,,,0.00,19,Wunderground v.1.15,2013-08-16 02:16:00,
2013-08-15 19:22:00,75.1,62.1,29.89,WSW,246,5.0,6.0,64,0.00,,,0.00,14,Wunderground v.1.15,2013-08-16 02:22:00,
2013-08-15 19:27:00,74.7,62.1,29.89,South,175,4.0,6.0,65,0.00,,,0.00,11,Wunderground v.1.15,2013-08-16 02:27:00,
2013-08-15 19:33:00,74.5,62.0,29.89,WSW,254,2.0,5.0,65,0.00,,,0.00,7,Wunderground v.1.15,2013-08-16 02:33:00,
2013-08-15 19:42:00,73.8,62.2,29.89,SSW,207,3.0,3.0,67,0.00,,,0.00,0,Wunderground v.1.15,2013-08-16 02:42:00,
2013-08-15 19:48:00,73.3,62.1,29.89,SW,225,3.0,6.0,68,0.00,,,0.00,0,Wunderground v.1.15,2013-08-16 02:48:00,
2013-08-15 19:53:00,73.0,61.8,29.90,South,186,3.0,4.0,68,0.00,,,0.00,0,Wunderground v.1.15,2013-08-16 02:53:00,
2013-08-15 19:58:00,72.9,62.1,29.90,WSW,237,2.0,9.0,69,0.00,,,0.00,0,Wunderground v.1.15,2013-08-16 02:58:00,
2013-08-15 20:04:00,72.6,61.8,29.90,SSW,198,2.0,2.0,69,0.00,,,0.00,0,Wunderground v.1.15,2013-08-16 03:04:00,
2013-08-15 20:09:00,72.4,62.1,29.90,SSW,193,1.0,3.0,70,0.00,,,0.00,0,Wunderground v.1.15,2013-08-16 03:09:00,
2013-08-15 20:15:00,72.0,62.1,29.90,SW,225,2.0,4.0,71,0.00,,,0.00,0,Wunderground v.1.15,2013-08-16 03:15:00,
2013-08-15 20:21:00,71.9,62.0,29.91,SW,221,2.0,2.0,71,0.00,,,0.00,0,Wunderground v.1.15,2013-08-16 03:21:00,
2013-08-15 20:26:00,71.5,62.0,29.91,SW,224,2.0,3.0,72,0.00,,,0.00,0,Wunderground v.1.15,2013-08-16 03:26:00,
2013-08-15 20:32:00,71.2,61.7,29.91,SSW,212,2.0,4.0,72,0.00,,,0.00,0,Wunderground v.1.15,2013-08-16 03:32:00,
2013-08-15 20:37:00,71.2,62.1,29.91,SSW,205,1.0,4.0,73,0.00,,,0.00,0,Wunderground v.1.15,2013-08-16 03:37:00,
2013-08-15 20:43:00,70.8,61.7,29.91,South,189,1.0,3.0,73,0.00,,,0.00,0,Wunderground v.1.15,2013-08-16 03:43:00,
2013-08-15 20:48:00,70.8,62.1,29.91,SW,223,1.0,3.0,74,0.00,,,0.00,0,Wunderground v.1.15,2013-08-16 03:48:00,
2013-08-15 20:54:00,70.5,61.8,29.91,SE,144,0.0,2.0,74,0.00,,,0.00,0,Wunderground v.1.15,2013-08-16 03:54:00,
2013-08-15 20:59:00,70.6,61.9,29.92,SE,146,0.0,0.0,74,0.00,,,0.00,0,Wunderground v.1.15,2013-08-16 03:59:00,
2013-08-15 21:01:00,70.6,61.9,29.92,SSE,148,0.0,1.0,74,0.00,,,0.00,0,Wunderground v.1.15,2013-08-16 04:01:00,
2013-08-15 21:03:00,70.6,61.9,29.92,SSW,196,0.0,1.0,74,0.00,,,0.00,0,Wunderground v.1.15,2013-08-16 04:03:00,
2013-08-15 21:04:00,70.5,61.8,29.92,SSW,196,0.0,1.0,74,0.00,,,0.00,0,Wunderground v.1.15,2013-08-16 04:04:00,
2013-08-15 21:06:00,70.3,61.6,29.92,SSW,196,0.0,1.0,74,0.00,,,0.00,0,Wunderground v.1.15,2013-08-16 04:06:00,
2013-08-15 21:10:00,70.2,61.5,29.92,SSW,196,0.0,0.0,74,0.00,,,0.00,0,Wunderground v.1.15,2013-08-16 04:10:00,
2013-08-15 21:15:00,70.0,61.7,29.92,SSW,198,0.0,0.0,75,0.00,,,0.00,0,Wunderground v.1.15,2013-08-16 04:15:00,
2013-08-15 21:20:00,69.7,61.4,29.92,SSW,207,0.0,0.0,75,0.00,,,0.00,0,Wunderground v.1.15,2013-08-16 04:20:00,
2013-08-15 21:26:00,69.6,61.3,29.92,SSW,207,0.0,0.0,75,0.00,,,0.00,0,Wunderground v.1.15,2013-08-16 04:26:00,
2013-08-15 21:31:00,69.3,61.4,29.92,SSW,207,0.0,0.0,76,0.00,,,0.00,0,Wunderground v.1.15,2013-08-16 04:31:00,
2013-08-15 21:37:00,69.3,61.0,29.92,SSW,207,0.0,0.0,75,0.00,,,0.00,0,Wunderground v.1.15,2013-08-16 04:37:00,
2013-08-15 21:42:00,69.1,61.2,29.93,SSW,207,0.0,0.0,76,0.00,,,0.00,0,Wunderground v.1.15,2013-08-16 04:42:00,
2013-08-15 21:48:00,69.1,61.2,29.92,SSW,207,0.0,0.0,76,0.00,,,0.00,0,Wunderground v.1.15,2013-08-16 04:48:00,
2013-08-15 21:53:00,69.1,61.2,29.92,SSW,207,0.0,0.0,76,0.00,,,0.00,0,Wunderground v.1.15,2013-08-16 04:53:00,
2013-08-15 21:58:00,69.0,61.1,29.92,SSW,207,0.0,2.0,76,0.00,,,0.00,0,Wunderground v.1.15,2013-08-16 04:58:00,
2013-08-15 22:04:00,69.0,61.5,29.93,SSW,207,0.0,0.0,77,0.00,,,0.00,0,Wunderground v.1.15,2013-08-16 05:04:00,
2013-08-15 22:09:00,68.8,60.9,29.93,SSW,207,0.0,0.0,76,0.00,,,0.00,0,Wunderground v.1.15,2013-08-16 05:09:00,
2013-08-15 22:14:00,68.9,61.4,29.93,SSW,207,0.0,0.0,77,0.00,,,0.00,0,Wunderground v.1.15,2013-08-16 05:14:00,
2013-08-15 22:20:00,68.1,59.9,29.93,SSW,207,0.0,0.0,75,0.00,,,0.00,0,Wunderground v.1.15,2013-08-16 05:20:00,
2013-08-15 22:25:00,67.5,59.7,29.93,SSW,207,0.0,0.0,76,0.00,,,0.00,0,Wunderground v.1.15,2013-08-16 05:25:00,
2013-08-15 22:30:00,67.3,59.5,29.93,SSW,207,0.0,0.0,76,0.00,,,0.00,0,Wunderground v.1.15,2013-08-16 05:30:00,
2013-08-15 22:36:00,66.9,59.1,29.93,SSW,207,0.0,0.0,76,0.00,,,0.00,0,Wunderground v.1.15,2013-08-16 05:36:00,
2013-08-15 22:41:00,66.5,59.4,29.93,SSW,207,0.0,0.0,78,0.00,,,0.00,0,Wunderground v.1.15,2013-08-16 05:41:00,
2013-08-15 22:47:00,66.5,59.4,29.93,SSW,207,0.0,0.0,78,0.00,,,0.00,0,Wunderground v.1.15,2013-08-16 05:47:00,
2013-08-15 22:52:00,66.7,59.6,29.93,SSW,207,0.0,0.0,78,0.00,,,0.00,0,Wunderground v.1.15,2013-08-16 05:52:00,
2013-08-15 22:57:00,66.8,59.7,29.93,SSW,207,0.0,0.0,78,0.00,,,0.00,0,Wunderground v.1.15,2013-08-16 05:57:00,
2013-08-15 23:03:00,66.3,59.6,29.93,SSW,207,0.0,0.0,79,0.00,,,0.00,0,Wunderground v.1.15,2013-08-16 06:03:00,
2013-08-15 23:08:00,66.5,59.4,29.93,SSW,207,0.0,0.0,78,0.00,,,0.00,0,Wunderground v.1.15,2013-08-16 06:08:00,
2013-08-15 23:14:00,66.0,58.6,29.93,SSE,156,0.0,0.0,77,0.00,,,0.00,0,Wunderground v.1.15,2013-08-16 06:14:00,
2013-08-15 23:19:00,65.5,58.8,29.94,SSE,153,0.0,0.0,79,0.00,,,0.00,0,Wunderground v.1.15,2013-08-16 06:19:00,
2013-08-15 23:24:00,65.7,59.0,29.94,SSE,153,0.0,1.0,79,0.00,,,0.00,0,Wunderground v.1.15,2013-08-16 06:24:00,
2013-08-15 23:30:00,65.7,59.0,29.94,SSE,152,0.0,0.0,79,0.00,,,0.00,0,Wunderground v.1.15,2013-08-16 06:30:00,
2013-08-15 23:35:00,65.2,58.2,29.94,SSE,152,0.0,0.0,78,0.00,,,0.00,0,Wunderground v.1.15,2013-08-16 06:35:00,
2013-08-15 23:41:00,64.8,58.5,29.94,SSE,152,0.0,0.0,80,0.00,,,0.00,0,Wunderground v.1.15,2013-08-16 06:41:00,
2013-08-15 23:47:00,64.9,58.6,29.94,SSE,150,0.0,0.0,80,0.00,,,0.00,0,Wunderground v.1.15,2013-08-16 06:47:00,
2013-08-15 23:52:00,64.8,58.5,29.94,SSE,150,0.0,0.0,80,0.00,,,0.00,0,Wunderground v.1.15,2013-08-16 06:52:00,
2013-08-15 23:58:00,64.5,58.2,29.94,SSE,150,0.0,0.0,80,0.00,,,0.00,0,Wunderground v.1.15,2013-08-16 06:58:00,